createdAt,value
2022-11-11T00:01:57.082Z,11.20
2022-11-11T00:05:04.097Z,11.20
2022-11-11T00:08:11.461Z,11.10
2022-11-11T00:11:18.521Z,11.10
2022-11-11T00:14:26.787Z,11.10
2022-11-11T00:17:52.221Z,11.10
2022-11-11T00:21:17.435Z,11.20
2022-11-11T00:24:43.989Z,11.20
2022-11-11T00:27:51.024Z,11.20
2022-11-11T00:31:05.239Z,11.20
2022-11-11T00:34:12.488Z,11.20
2022-11-11T00:37:18.646Z,11.20
2022-11-11T00:40:25.402Z,11.20
2022-11-11T00:43:32.187Z,11.20
2022-11-11T00:46:58.299Z,11.20
2022-11-11T00:50:24.015Z,11.30
2022-11-11T00:53:32.860Z,11.20
2022-11-11T00:56:39.887Z,11.30
2022-11-11T00:59:46.862Z,11.30
2022-11-11T01:02:55.263Z,11.20
2022-11-11T01:06:06.349Z,11.20
2022-11-11T01:09:13.626Z,11.20
2022-11-11T01:12:20.652Z,11.20
2022-11-11T01:15:27.753Z,11.20
2022-11-11T01:18:36.327Z,11.20
2022-11-11T01:21:43.426Z,11.20
2022-11-11T01:24:50.398Z,11.20
2022-11-11T01:27:57.245Z,11.10
2022-11-11T01:31:05.470Z,11.10
2022-11-11T01:34:13.883Z,11.10
2022-11-11T01:37:20.865Z,11.10
2022-11-11T01:40:27.963Z,11.10
2022-11-11T01:43:35.044Z,11.00
2022-11-11T01:46:44.679Z,11.00
2022-11-11T01:49:54.850Z,11.00
2022-11-11T01:53:02.146Z,10.90
2022-11-11T01:56:09.583Z,10.90
2022-11-11T01:59:17.514Z,10.80
2022-11-11T02:02:27.948Z,10.80
2022-11-11T02:05:45.587Z,10.80
2022-11-11T02:08:52.716Z,10.70
2022-11-11T02:12:17.961Z,10.70
2022-11-11T02:15:24.971Z,10.60
2022-11-11T02:18:32.182Z,10.70
2022-11-11T02:21:45.422Z,10.60
2022-11-11T02:24:54.570Z,10.70
2022-11-11T02:28:04.847Z,10.60
2022-11-11T02:31:13.495Z,10.60
2022-11-11T02:34:20.771Z,10.60
2022-11-11T02:37:28.401Z,10.60
2022-11-11T02:40:38.550Z,10.60
2022-11-11T02:43:45.372Z,10.60
2022-11-11T02:46:52.265Z,10.60
2022-11-11T02:49:58.925Z,10.50
2022-11-11T02:53:06.119Z,10.50
2022-11-11T02:56:35.516Z,10.50
2022-11-11T02:59:43.018Z,10.50
2022-11-11T03:02:50.093Z,10.50
2022-11-11T03:05:56.876Z,10.50
2022-11-11T03:09:04.280Z,10.50
2022-11-11T03:12:12.761Z,10.40
2022-11-11T03:15:19.861Z,10.40
2022-11-11T03:18:25.861Z,10.40
2022-11-11T03:22:52.864Z,10.30
2022-11-11T03:25:17.755Z,10.30
2022-11-11T03:28:26.119Z,10.30
2022-11-11T03:31:32.943Z,10.30
2022-11-11T03:34:40.240Z,10.30
2022-11-11T03:38:04.587Z,10.30
2022-11-11T03:41:11.707Z,10.30
2022-11-11T03:44:20.120Z,10.30
2022-11-11T03:47:27.237Z,10.30
2022-11-11T03:50:34.316Z,10.30
2022-11-11T03:53:41.089Z,10.20
2022-11-11T03:56:48.090Z,10.20
2022-11-11T03:59:56.671Z,10.20
2022-11-11T04:03:22.529Z,10.20
2022-11-11T04:06:47.509Z,10.20
2022-11-11T04:10:12.348Z,10.10
2022-11-11T04:13:37.135Z,10.10
2022-11-11T04:16:45.858Z,10.10
2022-11-11T04:20:10.706Z,10.10
2022-11-11T04:23:17.874Z,10.10
2022-11-11T04:26:24.044Z,10.10
2022-11-11T04:29:31.159Z,10.00
2022-11-11T04:32:39.854Z,10.00
2022-11-11T04:35:50.484Z,10.00
2022-11-11T04:39:15.102Z,10.00
2022-11-11T04:42:22.304Z,10.00
2022-11-11T04:45:31.321Z,9.90
2022-11-11T04:48:40.510Z,9.90
2022-11-11T04:52:05.384Z,9.90
2022-11-11T04:55:30.599Z,9.90
2022-11-11T04:58:37.782Z,9.90
2022-11-11T05:02:02.757Z,9.90
2022-11-11T05:05:11.341Z,9.90
2022-11-11T05:08:35.973Z,9.90
2022-11-11T05:11:43.022Z,9.80
2022-11-11T05:15:07.797Z,9.80
2022-11-11T05:18:33.017Z,9.70
2022-11-11T05:21:41.479Z,9.70
2022-11-11T05:25:05.923Z,9.70
2022-11-11T05:28:13.173Z,9.70
2022-11-11T05:31:20.231Z,9.70
2022-11-11T05:34:27.484Z,9.70
2022-11-11T05:37:36.014Z,9.70
2022-11-11T05:40:43.145Z,9.70
2022-11-11T05:43:50.335Z,9.70
2022-11-11T05:46:57.469Z,9.70
2022-11-11T05:50:04.651Z,9.70
2022-11-11T05:53:13.206Z,9.60
2022-11-11T05:56:20.045Z,9.50
2022-11-11T05:59:27.239Z,9.50
2022-11-11T06:02:34.590Z,9.50
2022-11-11T06:05:41.571Z,9.50
2022-11-11T06:08:50.003Z,9.40
2022-11-11T06:11:57.127Z,9.40
2022-11-11T06:15:04.291Z,9.40
2022-11-11T06:18:11.500Z,9.40
2022-11-11T06:21:18.678Z,9.40
2022-11-11T06:24:27.181Z,9.40
2022-11-11T06:27:34.574Z,9.40
2022-11-11T06:30:51.354Z,9.40
2022-11-11T06:33:58.416Z,9.40
2022-11-11T06:37:05.459Z,9.40
2022-11-11T06:40:18.814Z,9.40
2022-11-11T06:43:28.592Z,9.40
2022-11-11T06:46:35.991Z,9.40
2022-11-11T06:49:43.047Z,9.40
2022-11-11T06:52:50.045Z,9.40
2022-11-11T06:55:58.579Z,9.40
2022-11-11T06:59:05.566Z,9.40
2022-11-11T07:02:13.665Z,9.40
2022-11-11T07:05:03.425Z,9.40
2022-11-11T07:07:49.967Z,9.40
2022-11-11T07:10:38.491Z,9.40
2022-11-11T07:13:26.586Z,9.50
2022-11-11T07:16:13.636Z,9.50
2022-11-11T07:19:00.125Z,9.50
2022-11-11T07:21:47.273Z,9.60
2022-11-11T07:24:34.027Z,9.60
2022-11-11T07:27:20.547Z,9.60
2022-11-11T07:30:10.472Z,9.60
2022-11-11T07:32:57.395Z,9.60
2022-11-11T07:35:44.054Z,9.70
2022-11-11T07:38:30.495Z,9.80
2022-11-11T07:41:17.038Z,9.80
2022-11-11T07:44:03.635Z,9.90
2022-11-11T07:46:51.745Z,10.00
2022-11-11T07:49:38.245Z,10.10
2022-11-11T07:52:25.185Z,10.20
2022-11-11T07:55:12.047Z,10.20
2022-11-11T07:57:59.316Z,10.30
2022-11-11T08:00:45.932Z,10.40
2022-11-11T08:03:33.782Z,10.50
2022-11-11T08:06:20.620Z,10.60
2022-11-11T08:09:07.299Z,10.70
2022-11-11T08:12:11.384Z,10.70
2022-11-11T08:15:03.347Z,10.80
2022-11-11T08:17:52.625Z,10.90
2022-11-11T08:20:45.543Z,10.90
2022-11-11T08:26:40.808Z,10.90
2022-11-11T08:29:27.323Z,10.90
2022-11-11T08:32:13.943Z,10.90
2022-11-11T08:35:00.498Z,11.00
2022-11-11T08:37:48.587Z,10.90
2022-11-11T08:40:35.269Z,11.00
2022-11-11T08:43:22.806Z,11.00
2022-11-11T08:46:11.786Z,11.00
2022-11-11T08:48:58.725Z,11.00
2022-11-11T08:51:45.436Z,11.10
2022-11-11T08:54:34.313Z,11.10
2022-11-11T08:57:20.772Z,11.10
2022-11-11T09:00:09.190Z,11.20
2022-11-11T09:02:56.042Z,11.20
2022-11-11T09:05:44.085Z,11.20
2022-11-11T09:08:30.972Z,11.20
2022-11-11T09:11:19.095Z,11.20
2022-11-11T09:14:05.710Z,11.20
2022-11-11T09:16:52.394Z,11.20
2022-11-11T09:19:39.022Z,11.30
2022-11-11T09:22:25.752Z,11.30
2022-11-11T09:25:12.581Z,11.30
2022-11-11T09:28:01.467Z,11.30
2022-11-11T09:30:47.995Z,11.40
2022-11-11T09:33:34.556Z,11.40
2022-11-11T09:36:21.829Z,11.40
2022-11-11T09:39:08.625Z,11.40
2022-11-11T09:42:06.267Z,11.50
2022-11-11T09:45:17.092Z,11.50
2022-11-11T09:48:10.512Z,11.50
2022-11-11T09:50:58.594Z,11.60
2022-11-11T09:53:49.038Z,11.70
2022-11-11T09:56:35.806Z,11.70
2022-11-11T09:59:25.169Z,11.80
2022-11-11T10:02:21.443Z,11.80
2022-11-11T10:05:12.769Z,11.90
2022-11-11T10:08:01.736Z,11.90
2022-11-11T10:10:49.829Z,11.90
2022-11-11T10:13:37.625Z,11.90
2022-11-11T10:16:29.496Z,11.80
2022-11-11T10:19:27.949Z,11.80
2022-11-11T10:22:23.219Z,11.80
2022-11-11T10:25:21.888Z,11.80
2022-11-11T10:28:10.691Z,11.70
2022-11-11T10:30:57.299Z,11.70
2022-11-11T10:33:47.668Z,11.80
2022-11-11T10:36:37.344Z,11.70
2022-11-11T10:39:27.226Z,11.80
2022-11-11T10:42:17.465Z,11.80
2022-11-11T10:45:04.700Z,11.80
2022-11-11T10:47:56.404Z,11.80
2022-11-11T10:50:45.554Z,11.90
2022-11-11T10:53:38.739Z,11.90
2022-11-11T10:56:29.914Z,11.90
2022-11-11T10:59:19.776Z,11.90
2022-11-11T11:02:12.150Z,12.00
2022-11-11T11:05:03.358Z,12.00
2022-11-11T11:07:52.899Z,12.10
2022-11-11T11:10:43.938Z,12.20
2022-11-11T11:13:35.859Z,12.10
2022-11-11T11:16:26.710Z,12.10
2022-11-11T11:19:21.630Z,12.20
2022-11-11T11:22:09.094Z,12.10
2022-11-11T11:25:10.454Z,12.10
2022-11-11T11:28:09.949Z,12.20
2022-11-11T11:31:00.846Z,12.20
2022-11-11T11:33:54.054Z,12.20
2022-11-11T11:36:41.601Z,12.20
2022-11-11T11:39:35.985Z,12.20
2022-11-11T11:42:30.735Z,12.20
2022-11-11T11:45:23.854Z,12.30
2022-11-11T11:48:36.730Z,12.30
2022-11-11T11:51:33.748Z,12.30
2022-11-11T11:54:55.582Z,12.40
2022-11-11T11:57:54.372Z,12.50
2022-11-11T12:00:47.348Z,12.50
2022-11-11T12:04:25.081Z,12.60
2022-11-11T12:07:26.628Z,12.60
2022-11-11T12:10:32.496Z,12.70
2022-11-11T12:13:31.005Z,12.70
2022-11-11T12:19:51.958Z,12.80
2022-11-11T12:22:49.433Z,12.80
2022-11-11T12:25:49.326Z,12.80
2022-11-11T12:28:52.453Z,12.80
2022-11-11T12:31:58.698Z,12.80
2022-11-11T12:35:08.251Z,12.80
2022-11-11T12:38:20.494Z,12.80
2022-11-11T12:41:15.469Z,12.80
2022-11-11T12:44:06.226Z,12.70
2022-11-11T12:47:08.878Z,12.70
2022-11-11T12:49:59.910Z,12.70
2022-11-11T12:53:02.013Z,12.70
2022-11-11T12:55:53.728Z,12.70
2022-11-11T12:58:45.141Z,12.70
2022-11-11T13:01:44.722Z,12.70
2022-11-11T13:04:41.538Z,12.80
2022-11-11T13:08:00.704Z,12.80
2022-11-11T13:10:53.438Z,12.80
2022-11-11T13:13:54.553Z,12.80
2022-11-11T13:16:41.653Z,12.80
2022-11-11T13:19:36.022Z,12.80
2022-11-11T13:22:27.633Z,12.80
2022-11-11T13:25:17.182Z,12.80
2022-11-11T13:28:07.250Z,12.80
2022-11-11T13:31:16.658Z,12.80
2022-11-11T13:34:05.681Z,12.80
2022-11-11T13:36:54.997Z,12.80
2022-11-11T13:39:45.293Z,12.70
2022-11-11T13:42:37.292Z,12.70
2022-11-11T13:45:28.195Z,12.70
2022-11-11T13:48:24.979Z,12.70
2022-11-11T13:51:15.519Z,12.70
2022-11-11T13:54:03.943Z,12.80
2022-11-11T13:56:50.653Z,12.80
2022-11-11T13:59:39.318Z,12.80
2022-11-11T14:02:32.977Z,12.80
2022-11-11T14:05:23.884Z,12.80
2022-11-11T14:08:10.937Z,12.80
2022-11-11T14:11:00.119Z,12.80
2022-11-11T14:13:47.127Z,12.90
2022-11-11T14:17:02.556Z,12.90
2022-11-11T14:19:49.350Z,12.90
2022-11-11T14:22:36.067Z,12.90
2022-11-11T14:25:25.614Z,13.00
2022-11-11T14:28:23.590Z,13.00
2022-11-11T14:31:57.544Z,13.00
2022-11-11T14:34:59.558Z,13.00
2022-11-11T14:38:36.629Z,13.00
2022-11-11T14:41:45.443Z,13.00
2022-11-11T14:44:45.630Z,13.00
2022-11-11T14:47:36.486Z,13.00
2022-11-11T14:50:45.265Z,13.00
2022-11-11T14:53:36.391Z,13.10
2022-11-11T14:56:23.125Z,13.10
2022-11-11T14:59:09.829Z,13.10
2022-11-11T15:01:57.954Z,13.10
2022-11-11T15:04:44.827Z,13.10
2022-11-11T15:07:43.107Z,13.10
2022-11-11T15:11:07.438Z,13.10
2022-11-11T15:14:13.424Z,13.10
2022-11-11T15:17:18.219Z,13.10
2022-11-11T15:20:42.536Z,13.10
2022-11-11T15:23:32.966Z,13.10
2022-11-11T15:26:22.830Z,13.10
2022-11-11T15:29:25.599Z,13.10
2022-11-11T15:32:20.285Z,13.00
2022-11-11T15:35:25.001Z,13.00
2022-11-11T15:38:14.201Z,13.00
2022-11-11T15:41:01.529Z,13.00
2022-11-11T15:43:48.250Z,13.00
2022-11-11T15:46:37.155Z,13.00
2022-11-11T15:49:41.634Z,13.00
2022-11-11T15:52:32.294Z,13.00
2022-11-11T15:55:23.906Z,13.00
2022-11-11T15:58:16.781Z,13.00
2022-11-11T16:01:05.346Z,13.00
2022-11-11T16:03:52.088Z,13.00
2022-11-11T16:06:40.180Z,13.00
2022-11-11T16:09:29.577Z,13.00
2022-11-11T16:12:20.715Z,13.00
2022-11-11T16:15:09.940Z,12.90
2022-11-11T16:17:59.913Z,12.90
2022-11-11T16:20:50.065Z,12.90
2022-11-11T16:23:38.332Z,12.90
2022-11-11T16:26:25.894Z,12.90
2022-11-11T16:29:15.743Z,12.90
2022-11-11T16:32:03.472Z,12.90
2022-11-11T16:34:50.413Z,12.80
2022-11-11T16:37:52.109Z,12.80
2022-11-11T16:40:43.905Z,12.80
2022-11-11T16:43:32.042Z,12.70
2022-11-11T16:46:40.796Z,12.70
2022-11-11T16:49:28.857Z,12.70
2022-11-11T16:52:18.323Z,12.70
2022-11-11T16:55:05.658Z,12.60
2022-11-11T16:57:53.655Z,12.60
2022-11-11T17:00:40.335Z,12.60
2022-11-11T17:03:27.361Z,12.60
2022-11-11T17:06:14.765Z,12.60
2022-11-11T17:09:01.266Z,12.60
2022-11-11T17:11:47.886Z,12.70
2022-11-11T17:14:37.359Z,12.70
2022-11-11T17:17:24.205Z,12.70
2022-11-11T17:20:13.466Z,12.70
2022-11-11T17:23:00.478Z,12.70
2022-11-11T17:25:47.343Z,12.70
2022-11-11T17:28:35.649Z,12.60
2022-11-11T17:31:24.622Z,12.60
2022-11-11T17:34:11.723Z,12.70
2022-11-11T17:36:58.398Z,12.70
2022-11-11T17:39:45.021Z,12.70
2022-11-11T17:42:32.343Z,12.60
2022-11-11T17:45:19.223Z,12.60
2022-11-11T17:48:08.166Z,12.60
2022-11-11T17:50:55.045Z,12.60
2022-11-11T17:53:41.692Z,12.60
2022-11-11T17:56:28.130Z,12.60
2022-11-11T17:59:14.668Z,12.70
2022-11-11T18:02:01.986Z,12.60
2022-11-11T18:04:50.246Z,12.60
2022-11-11T18:07:39.120Z,12.60
2022-11-11T18:10:29.194Z,12.60
2022-11-11T18:13:15.842Z,12.70
2022-11-11T18:16:06.024Z,12.70
2022-11-11T18:18:54.441Z,12.70
2022-11-11T18:21:43.014Z,12.70
2022-11-11T18:24:29.780Z,12.70
2022-11-11T18:27:16.868Z,12.70
2022-11-11T18:30:03.610Z,12.60
2022-11-11T18:32:50.185Z,12.60
2022-11-11T18:35:36.920Z,12.60
2022-11-11T18:38:24.747Z,12.60
2022-11-11T18:41:13.580Z,12.60
2022-11-11T18:44:00.450Z,12.60
2022-11-11T18:46:47.239Z,12.60
2022-11-11T18:49:33.816Z,12.60
2022-11-11T18:52:20.359Z,12.60
2022-11-11T18:55:09.493Z,12.60
2022-11-11T18:57:56.271Z,12.50
2022-11-11T19:00:42.853Z,12.50
2022-11-11T19:03:29.679Z,12.50
2022-11-11T19:06:16.476Z,12.40
2022-11-11T19:09:06.294Z,12.40
2022-11-11T19:11:54.601Z,12.40
2022-11-11T19:14:41.871Z,12.30
2022-11-11T19:17:28.350Z,12.30
2022-11-11T19:20:14.957Z,12.30
2022-11-11T19:23:01.512Z,12.30
2022-11-11T19:25:47.948Z,12.20
2022-11-11T19:28:36.185Z,12.20
2022-11-11T19:31:24.998Z,12.20
2022-11-11T19:34:12.046Z,12.20
2022-11-11T19:36:58.908Z,12.20
2022-11-11T19:39:45.619Z,12.20
2022-11-11T19:42:32.383Z,12.20
2022-11-11T19:45:20.314Z,12.20
2022-11-11T19:48:07.534Z,12.20
2022-11-11T19:50:54.372Z,12.20
2022-11-11T19:53:40.961Z,12.20
2022-11-11T19:56:30.975Z,12.10
2022-11-11T19:59:17.959Z,12.10
2022-11-11T20:02:06.140Z,12.00
2022-11-11T20:04:52.654Z,12.00
2022-11-11T20:07:39.220Z,12.00
2022-11-11T20:10:25.770Z,11.90
2022-11-11T20:13:12.431Z,11.90
2022-11-11T20:16:02.170Z,11.80
2022-11-11T20:18:50.638Z,11.80
2022-11-11T20:21:37.130Z,11.70
2022-11-11T20:24:23.594Z,11.60
2022-11-11T20:27:10.226Z,11.50
2022-11-11T20:29:56.729Z,11.50
2022-11-11T20:32:44.563Z,11.40
2022-11-11T20:35:38.298Z,11.40
2022-11-11T20:38:25.121Z,11.40
2022-11-11T20:41:12.482Z,11.30
2022-11-11T20:43:59.558Z,11.30
2022-11-11T20:46:46.337Z,11.30
2022-11-11T20:49:34.169Z,11.30
2022-11-11T20:52:22.102Z,11.20
2022-11-11T20:55:09.372Z,11.20
2022-11-11T20:57:55.753Z,11.20
2022-11-11T21:00:42.381Z,11.20
2022-11-11T21:03:53.222Z,11.20
2022-11-11T21:06:59.927Z,11.10
2022-11-11T21:10:09.171Z,11.10
2022-11-11T21:13:16.184Z,11.10
2022-11-11T21:16:24.789Z,11.00
2022-11-11T21:19:31.805Z,11.00
2022-11-11T21:22:38.887Z,10.90
2022-11-11T21:25:47.472Z,10.90
2022-11-11T21:28:54.622Z,10.80
2022-11-11T21:32:01.647Z,10.70
2022-11-11T21:35:09.762Z,10.60
2022-11-11T21:38:16.971Z,10.60
2022-11-11T21:41:26.547Z,10.60
2022-11-11T21:44:33.806Z,10.50
2022-11-11T21:47:41.017Z,10.50
2022-11-11T21:50:48.144Z,10.40
2022-11-11T21:54:01.105Z,10.40
2022-11-11T21:57:10.898Z,10.30
2022-11-11T22:00:19.536Z,10.30
2022-11-11T22:03:26.324Z,10.20
2022-11-11T22:06:33.435Z,10.20
2022-11-11T22:09:40.587Z,10.20
2022-11-11T22:12:49.073Z,10.10
2022-11-11T22:16:00.749Z,10.10
2022-11-11T22:19:09.340Z,10.10
2022-11-11T22:22:16.321Z,10.10
2022-11-11T22:25:23.351Z,10.00
2022-11-11T22:28:32.098Z,10.00
2022-11-11T22:31:39.105Z,10.00
2022-11-11T22:34:46.179Z,9.90
2022-11-11T22:37:53.355Z,9.90
2022-11-11T22:41:04.054Z,9.90
2022-11-11T22:44:12.364Z,9.80
2022-11-11T22:47:19.302Z,9.80
2022-11-11T22:50:26.400Z,9.80
2022-11-11T22:53:33.737Z,9.80
2022-11-11T22:56:41.145Z,9.80
2022-11-11T22:59:49.581Z,9.80
2022-11-11T23:02:59.001Z,9.80
2022-11-11T23:06:07.088Z,9.80
2022-11-11T23:09:13.985Z,9.80
2022-11-11T23:12:21.121Z,9.80
2022-11-11T23:15:29.414Z,9.80
2022-11-11T23:18:36.573Z,9.80
2022-11-11T23:21:43.866Z,9.70
2022-11-11T23:24:50.858Z,9.70
2022-11-11T23:27:58.023Z,9.70
2022-11-11T23:31:07.927Z,9.70
2022-11-11T23:34:14.811Z,9.70
2022-11-11T23:37:21.889Z,9.70
2022-11-11T23:40:28.748Z,9.70
2022-11-11T23:43:35.846Z,9.70
2022-11-11T23:46:44.136Z,9.80
2022-11-11T23:49:51.028Z,9.80
2022-11-11T23:52:57.741Z,9.80
2022-11-11T23:56:05.597Z,9.90
2022-11-11T23:59:12.343Z,9.90
